To NAV CANADA Home Page Login to a new session Search on AWWS site Feedback and Comments Disclaimer Vers la page française équivalente Tips FAQ What's new on the site To the Forecasts and Observations / NOTAM section To "File a Flight Plan" website Publications and other links Update of the User's profile FIC Telephone Numbers My Weather Data Folder Route Weather Data Regional Weather Data Local Weather Data To the Forecasts and Observations / NOTAM section
Request Generated 02/06/2016 at 06:47:32 UTC . Weather information available at that time is displayed.

METAR/TAF

STONY RAPIDS/SK    (show WxCam)

METAR CYSF 060600Z AUTO 09015KT 9SM -SN OVC050 M20/M23 A2975 RMK
SLP108=
SPECI CYSF 060515Z AUTO 09012G17KT 6SM -SN BKN032 OVC055 M21/M24
A2976 RMK SLP114=
METAR CYSF 060500Z AUTO 09013G20KT 5SM -SN OVC034 M21/M24 A2976 RMK
SLP116=
SPECI CYSF 060454Z AUTO 09012G19KT 5SM -SN OVC038 M21/M24 A2977 RMK
SLP118=
SPECI CYSF 060419Z AUTO 09014KT 6SM -SN OVC030 M21/M24 A2978 RMK
SLP125=
METAR CYSF 060400Z AUTO 09013KT 4SM -SN OVC030 M21/M24 A2979 RMK
SLP128=

TAF CYSF 060547Z 0606/0618 09012G22KT 6SM -SN SCT020 OVC050 TEMPO
0606/0618 3SM -SN OVC020 PROB30 0606/0618 1SM -SN OVC008
RMK FCST BASED ON AUTO OBS. NXT FCST BY 061200Z=
Your time UTC time
Weather data provided by Environment Canada and NAV CANADA